createdAt,value
2018-06-28T00:00:07.442Z,102393.91
2018-06-28T00:02:36.282Z,102392.55
2018-06-28T00:05:05.039Z,102389.83
2018-06-28T00:07:33.570Z,102384.92
2018-06-28T00:10:02.351Z,102381.38
2018-06-28T00:12:30.801Z,102384.45
2018-06-28T00:14:59.580Z,102384.45
2018-06-28T00:17:28.223Z,102378.72
2018-06-28T00:19:57.649Z,102376.48
2018-06-28T00:22:26.535Z,102375.59
2018-06-28T00:24:55.074Z,102376.92
2018-06-28T00:27:23.558Z,102376.92
2018-06-28T00:29:52.290Z,102376.02
2018-06-28T00:32:21.181Z,102365.37
2018-06-28T00:34:49.845Z,102366.23
2018-06-28T00:37:19.098Z,102367.56
2018-06-28T00:39:47.572Z,102371.48
2018-06-28T00:42:16.066Z,102367.91
2018-06-28T00:44:44.701Z,102330.75
2018-06-28T00:47:13.309Z,102363.80
2018-06-28T00:49:43.409Z,102357.16
2018-06-28T00:52:12.290Z,102351.41
2018-06-28T00:54:40.861Z,102352.28
2018-06-28T00:57:09.343Z,102350.48
2018-06-28T00:59:38.657Z,102347.37
2018-06-28T01:02:07.177Z,102346.47
2018-06-28T01:04:35.649Z,102348.66
2018-06-28T01:07:04.291Z,102345.95
2018-06-28T01:09:32.918Z,102343.23
2018-06-28T01:12:01.351Z,102342.30
2018-06-28T01:14:29.877Z,102339.61
2018-06-28T01:16:58.441Z,102346.69
2018-06-28T01:19:26.935Z,102344.47
2018-06-28T01:21:55.608Z,102338.23
2018-06-28T01:24:25.554Z,102334.67
2018-06-28T01:26:54.085Z,102336.44
2018-06-28T01:29:22.878Z,102339.09
2018-06-28T01:31:51.512Z,102331.98
2018-06-28T01:34:20.383Z,102330.23
2018-06-28T01:36:49.549Z,102335.97
2018-06-28T01:39:18.065Z,102338.16
2018-06-28T01:41:58.289Z,102339.48
2018-06-28T01:44:26.797Z,102335.88
2018-06-28T01:46:55.383Z,102334.08
2018-06-28T01:49:24.357Z,102332.33
2018-06-28T01:51:52.905Z,102326.55
2018-06-28T01:54:21.324Z,102328.31
2018-06-28T01:56:50.107Z,102328.77
2018-06-28T01:59:18.927Z,102322.14
2018-06-28T02:01:47.358Z,102319.95
2018-06-28T02:04:15.922Z,102328.34
2018-06-28T02:06:44.510Z,102315.07
2018-06-28T02:09:12.950Z,102322.17
2018-06-28T02:11:41.369Z,102317.33
2018-06-28T02:14:10.081Z,102313.80
2018-06-28T02:16:38.541Z,102312.05
2018-06-28T02:19:07.406Z,102308.95
2018-06-28T02:21:36.138Z,102311.64
2018-06-28T02:24:04.591Z,102318.72
2018-06-28T02:26:33.005Z,102312.41
2018-06-28T02:29:01.531Z,102314.14
2018-06-28T02:31:30.239Z,102309.23
2018-06-28T02:33:58.696Z,102305.68
2018-06-28T02:36:27.153Z,102311.52
2018-06-28T02:38:56.705Z,102304.45
2018-06-28T02:41:26.431Z,102298.70
2018-06-28T02:43:55.581Z,102299.14
2018-06-28T02:46:24.794Z,102298.19
2018-06-28T02:48:53.416Z,102294.63
2018-06-28T02:51:21.925Z,102295.95
2018-06-28T02:53:50.433Z,102300.87
2018-06-28T02:56:19.489Z,102293.40
2018-06-28T02:58:48.110Z,102288.52
2018-06-28T03:01:16.626Z,102282.81
2018-06-28T03:03:45.273Z,102286.79
2018-06-28T03:06:13.733Z,102288.15
2018-06-28T03:08:42.157Z,102284.66
2018-06-28T03:11:10.814Z,102280.27
2018-06-28T03:13:39.397Z,102279.41
2018-06-28T03:16:07.905Z,102285.70
2018-06-28T03:18:36.582Z,102282.19
2018-06-28T03:21:05.047Z,102279.56
2018-06-28T03:23:33.566Z,102271.19
2018-06-28T03:26:02.206Z,102275.69
2018-06-28T03:28:30.717Z,102272.69
2018-06-28T03:30:59.257Z,102270.12
2018-06-28T03:33:27.893Z,102265.30
2018-06-28T03:35:56.400Z,102264.48
2018-06-28T03:38:25.506Z,102261.05
2018-06-28T03:40:54.564Z,102260.70
2018-06-28T03:43:23.070Z,102250.59
2018-06-28T03:45:51.508Z,102248.88
2018-06-28T03:48:20.330Z,102215.83
2018-06-28T03:50:49.279Z,102245.91
2018-06-28T03:53:17.709Z,102246.02
2018-06-28T03:55:46.209Z,102242.11
2018-06-28T03:58:14.922Z,102246.63
2018-06-28T04:00:43.429Z,102243.17
2018-06-28T04:03:11.953Z,102242.38
2018-06-28T04:05:40.797Z,102243.80
2018-06-28T04:08:09.258Z,102244.81
2018-06-28T04:10:37.873Z,102239.13
2018-06-28T04:13:06.721Z,102243.20
2018-06-28T04:15:35.146Z,102232.65
2018-06-28T04:18:03.818Z,102237.19
2018-06-28T04:20:39.090Z,102233.72
2018-06-28T04:23:07.762Z,102231.61
2018-06-28T04:25:36.189Z,102231.25
2018-06-28T04:28:05.856Z,102227.32
2018-06-28T04:30:34.826Z,102227.40
2018-06-28T04:33:03.354Z,102192.65
2018-06-28T04:35:32.285Z,102218.67
2018-06-28T04:38:00.714Z,102219.20
2018-06-28T04:40:29.145Z,102227.25
2018-06-28T04:42:58.001Z,102223.33
2018-06-28T04:45:26.630Z,102219.41
2018-06-28T04:47:55.054Z,102223.95
2018-06-28T04:50:23.841Z,102216.48
2018-06-28T04:52:52.715Z,102214.76
2018-06-28T04:55:21.229Z,102216.16
2018-06-28T04:57:49.695Z,102218.05
2018-06-28T05:00:18.290Z,102220.78
2018-06-28T05:02:47.001Z,102216.84
2018-06-28T05:05:15.461Z,102213.34
2018-06-28T05:07:44.397Z,102209.84
2018-06-28T05:10:12.821Z,102203.23
2018-06-28T05:12:41.300Z,102202.79
2018-06-28T05:15:09.966Z,102197.05
2018-06-28T05:17:38.423Z,102191.32
2018-06-28T05:20:06.924Z,102197.16
2018-06-28T05:22:35.521Z,102199.87
2018-06-28T05:25:04.546Z,102198.59
2018-06-28T05:27:33.026Z,102198.66
2018-06-28T05:30:01.692Z,102191.12
2018-06-28T05:32:30.557Z,102192.49
2018-06-28T05:34:59.120Z,102196.97
2018-06-28T05:37:27.678Z,102192.09
2018-06-28T05:39:56.515Z,102193.91
2018-06-28T05:42:24.989Z,102187.26
2018-06-28T05:44:53.763Z,102189.51
2018-06-28T05:47:22.362Z,102194.42
2018-06-28T05:49:50.810Z,102188.22
2018-06-28T05:52:19.309Z,102188.69
2018-06-28T05:54:48.045Z,102189.16
2018-06-28T05:57:16.522Z,102187.42
2018-06-28T05:59:45.257Z,102188.78
2018-06-28T06:02:14.348Z,102183.00
2018-06-28T06:04:43.178Z,102182.57
2018-06-28T06:07:11.721Z,102183.47
2018-06-28T06:09:40.441Z,102178.13
2018-06-28T06:12:09.202Z,102171.89
2018-06-28T06:14:37.798Z,102161.64
2018-06-28T06:17:06.255Z,102160.30
2018-06-28T06:19:34.858Z,102154.49
2018-06-28T06:22:03.389Z,102152.28
2018-06-28T06:24:31.867Z,102147.34
2018-06-28T06:27:00.422Z,102150.44
2018-06-28T06:29:29.431Z,102151.74
2018-06-28T06:31:58.139Z,102155.28
2018-06-28T06:34:26.850Z,102149.02
2018-06-28T06:36:55.497Z,102148.52
2018-06-28T06:39:23.974Z,102141.80
2018-06-28T06:41:52.731Z,102149.39
2018-06-28T06:44:21.166Z,102140.44
2018-06-28T06:46:49.845Z,102129.25
2018-06-28T06:49:18.490Z,102129.20
2018-06-28T06:51:47.346Z,102126.47
2018-06-28T06:54:15.786Z,102123.74
2018-06-28T06:56:44.814Z,102122.79
2018-06-28T06:59:13.389Z,102112.04
2018-06-28T07:01:41.813Z,102109.75
2018-06-28T07:04:11.395Z,102120.41
2018-06-28T07:06:40.086Z,102104.73
2018-06-28T07:09:10.921Z,102103.76
2018-06-28T07:11:39.561Z,102102.74
2018-06-28T07:14:08.446Z,102097.70
2018-06-28T07:16:36.926Z,102096.21
2018-06-28T07:19:05.629Z,102091.23
2018-06-28T07:21:34.772Z,102091.55
2018-06-28T07:24:03.522Z,102083.89
2018-06-28T07:26:31.975Z,102086.84
2018-06-28T07:29:00.581Z,102067.95
2018-06-28T07:31:29.428Z,102063.25
2018-06-28T07:33:57.890Z,102061.62
2018-06-28T07:36:26.815Z,102055.61
2018-06-28T07:38:55.263Z,102048.62
2018-06-28T07:41:23.789Z,102042.83
2018-06-28T07:43:55.716Z,102037.62
2018-06-28T07:46:24.158Z,102033.28
2018-06-28T07:48:53.035Z,102028.55
2018-06-28T07:51:21.535Z,102028.12
2018-06-28T07:53:50.418Z,102027.42
2018-06-28T07:56:18.858Z,102024.42
2018-06-28T07:58:48.653Z,102015.09
2018-06-28T08:01:17.226Z,102014.03
2018-06-28T08:03:45.709Z,102016.98
2018-06-28T08:06:14.250Z,102009.22
2018-06-28T08:08:43.410Z,102007.53
2018-06-28T08:11:11.874Z,102006.95
2018-06-28T08:13:40.478Z,102003.86
2018-06-28T08:16:09.267Z,102000.01
2018-06-28T08:18:38.725Z,101995.59
2018-06-28T08:21:07.110Z,101996.75
2018-06-28T08:23:35.566Z,101986.92
2018-06-28T08:26:04.057Z,101985.06
2018-06-28T08:28:32.942Z,101979.98
2018-06-28T08:31:01.482Z,101980.13
2018-06-28T08:33:30.312Z,101976.25
2018-06-28T08:35:59.001Z,101970.00
2018-06-28T08:38:27.381Z,101973.55
2018-06-28T08:40:55.885Z,101971.16
2018-06-28T08:43:24.754Z,101977.61
2018-06-28T08:45:53.170Z,101961.86
2018-06-28T08:48:21.822Z,101961.48
2018-06-28T08:50:50.825Z,101972.47
2018-06-28T08:53:19.461Z,101957.85
2018-06-28T08:55:48.655Z,101957.91
2018-06-28T08:58:17.476Z,101946.20
2018-06-28T09:00:45.862Z,101953.38
2018-06-28T09:03:14.529Z,101949.19
2018-06-28T09:05:43.799Z,101947.97
2018-06-28T09:08:12.197Z,101953.80
2018-06-28T09:10:40.742Z,101944.39
2018-06-28T09:13:09.693Z,101943.33
2018-06-28T09:15:38.250Z,101933.73
2018-06-28T09:18:06.834Z,101950.42
2018-06-28T09:20:35.525Z,101924.94
2018-06-28T09:23:04.093Z,101926.19
2018-06-28T09:25:32.518Z,101917.99
2018-06-28T09:28:01.118Z,101914.46
2018-06-28T09:30:30.580Z,101907.17
2018-06-28T09:32:58.993Z,101907.87
2018-06-28T09:35:27.785Z,101899.39
2018-06-28T09:37:56.257Z,101894.55
2018-06-28T09:40:24.737Z,101885.51
2018-06-28T09:42:53.406Z,101866.83
2018-06-28T09:45:21.854Z,101890.26
2018-06-28T09:47:50.464Z,101886.11
2018-06-28T09:50:19.275Z,101879.02
2018-06-28T09:52:47.961Z,101886.69
2018-06-28T09:55:16.811Z,101868.39
2018-06-28T09:57:46.293Z,101866.84
2018-06-28T10:00:19.014Z,101867.73
2018-06-28T10:02:47.818Z,101856.11
2018-06-28T10:05:16.598Z,101860.52
2018-06-28T10:07:45.175Z,101848.17
2018-06-28T10:10:13.987Z,101850.63
2018-06-28T10:12:42.485Z,101842.43
2018-06-28T10:15:11.005Z,101840.49
2018-06-28T10:17:39.949Z,101834.06
2018-06-28T10:20:08.407Z,101831.69
2018-06-28T10:22:36.980Z,101824.55
2018-06-28T10:25:05.973Z,101819.77
2018-06-28T10:27:34.329Z,101823.19
2018-06-28T10:30:02.776Z,101820.59
2018-06-28T10:32:31.533Z,101829.66
2018-06-28T10:35:00.169Z,101807.52
2018-06-28T10:37:28.585Z,101799.55
2018-06-28T10:39:57.329Z,101795.77
2018-06-28T10:42:25.757Z,101797.16
2018-06-28T10:44:54.227Z,101789.58
2018-06-28T10:47:24.233Z,101778.72
2018-06-28T10:49:52.673Z,101781.66
2018-06-28T10:52:21.143Z,101776.08
2018-06-28T10:54:49.926Z,101769.09
2018-06-28T10:57:18.473Z,101761.92
2018-06-28T10:59:46.941Z,101759.03
2018-06-28T11:02:15.632Z,101749.55
2018-06-28T11:04:44.717Z,101749.14
2018-06-28T11:07:13.149Z,101750.84
2018-06-28T11:09:41.835Z,101738.07
2018-06-28T11:12:10.798Z,101729.75
2018-06-28T11:14:39.426Z,101720.81
2018-06-28T11:17:08.186Z,101723.41
2018-06-28T11:19:36.843Z,101722.97
2018-06-28T11:22:05.313Z,101718.20
2018-06-28T11:24:34.113Z,101713.29
2018-06-28T11:27:02.781Z,101699.80
2018-06-28T11:29:31.236Z,101701.50
2018-06-28T11:31:59.886Z,101697.59
2018-06-28T11:34:28.649Z,101699.91
2018-06-28T11:36:57.136Z,101684.05
2018-06-28T11:39:25.702Z,101685.23
2018-06-28T11:41:54.413Z,101672.19
2018-06-28T11:44:22.846Z,101673.14
2018-06-28T11:46:51.362Z,101663.55
2018-06-28T11:49:20.352Z,101653.56
2018-06-28T11:51:48.802Z,101656.61
2018-06-28T11:54:17.409Z,101649.66
2018-06-28T11:56:46.715Z,101649.33
2018-06-28T11:59:15.148Z,101636.98
2018-06-28T12:01:43.901Z,101640.34
2018-06-28T12:04:12.554Z,101627.59
2018-06-28T12:06:40.977Z,101622.53
2018-06-28T12:09:11.034Z,101621.01
2018-06-28T12:11:39.953Z,101621.36
2018-06-28T12:14:08.785Z,101606.98
2018-06-28T12:16:37.429Z,101599.89
2018-06-28T12:19:05.857Z,101593.49
2018-06-28T12:21:34.678Z,101592.48
2018-06-28T12:24:03.369Z,101591.95
2018-06-28T12:26:31.807Z,101585.91
2018-06-28T12:29:00.335Z,101589.14
2018-06-28T12:31:29.649Z,101585.61
2018-06-28T12:33:58.089Z,101586.09
2018-06-28T12:36:26.719Z,101578.33
2018-06-28T12:38:55.414Z,101578.17
2018-06-28T12:41:23.857Z,101570.02
2018-06-28T12:43:52.428Z,101564.09
2018-06-28T12:46:37.979Z,101579.73
2018-06-28T12:49:08.306Z,101571.65
2018-06-28T12:51:53.223Z,101550.88
2018-06-28T12:54:21.759Z,101557.93
2018-06-28T12:56:56.769Z,101540.17
2018-06-28T12:59:41.651Z,101531.87
2018-06-28T13:02:10.385Z,101532.77
2018-06-28T13:04:38.821Z,101523.89
2018-06-28T13:07:07.747Z,101513.19
2018-06-28T13:09:36.542Z,101509.14
2018-06-28T13:12:05.039Z,101514.87
2018-06-28T13:14:42.713Z,101504.59
2018-06-28T13:17:20.978Z,101501.06
2018-06-28T13:19:49.466Z,101498.43
2018-06-28T13:22:17.902Z,101486.78
2018-06-28T13:24:46.695Z,101482.06
2018-06-28T13:27:15.162Z,101483.03
2018-06-28T13:29:43.586Z,101470.90
2018-06-28T13:32:12.093Z,101457.21
2018-06-28T13:34:41.210Z,101460.67
2018-06-28T13:37:09.643Z,101446.40
2018-06-28T13:39:39.186Z,101446.44
2018-06-28T13:42:07.922Z,101439.91
2018-06-28T13:44:36.342Z,101434.78
2018-06-28T13:47:05.260Z,101429.03
2018-06-28T13:49:33.840Z,101426.02
2018-06-28T13:52:02.302Z,101426.02
2018-06-28T13:54:30.822Z,101422.92
2018-06-28T13:56:59.818Z,101424.81
2018-06-28T13:59:28.857Z,101419.95
2018-06-28T14:01:57.474Z,101407.50
2018-06-28T14:04:26.470Z,101410.02
2018-06-28T14:06:55.189Z,101408.61
2018-06-28T14:09:23.744Z,101406.19
2018-06-28T14:11:52.328Z,101400.32
2018-06-28T14:14:20.770Z,101392.78
2018-06-28T14:16:49.345Z,101403.29
2018-06-28T14:19:17.993Z,101392.34
2018-06-28T14:21:46.469Z,101387.26
2018-06-28T14:24:15.130Z,101380.67
2018-06-28T14:26:43.622Z,101379.94
2018-06-28T14:29:12.092Z,101368.83
2018-06-28T14:31:40.885Z,101354.14
2018-06-28T14:34:09.465Z,101354.52
2018-06-28T14:36:37.902Z,101361.84
2018-06-28T14:39:08.625Z,101346.14
2018-06-28T14:41:37.543Z,101350.93
2018-06-28T14:44:05.985Z,101348.31
2018-06-28T14:46:34.414Z,101337.12
2018-06-28T14:49:03.049Z,101335.95
2018-06-28T14:51:31.756Z,101324.75
2018-06-28T14:54:00.775Z,101326.41
2018-06-28T14:56:29.789Z,101325.34
2018-06-28T14:58:58.401Z,101318.05
2018-06-28T15:01:26.842Z,101321.34
2018-06-28T15:03:55.849Z,101294.95
2018-06-28T15:06:24.446Z,101310.89
2018-06-28T15:08:52.873Z,101298.39
2018-06-28T15:11:21.327Z,101290.50
2018-06-28T15:13:50.070Z,101285.08
2018-06-28T15:16:18.514Z,101294.20
2018-06-28T15:18:47.163Z,101273.31
2018-06-28T15:21:15.987Z,101266.06
2018-06-28T15:23:44.637Z,101259.92
2018-06-28T15:26:19.522Z,101266.96
2018-06-28T15:28:48.531Z,101259.64
2018-06-28T15:31:17.230Z,101254.69
2018-06-28T15:33:45.795Z,101256.50
2018-06-28T15:36:14.718Z,101248.34
2018-06-28T15:38:43.232Z,101116.96
2018-06-28T15:41:11.719Z,101243.67
2018-06-28T15:43:40.169Z,101239.14
2018-06-28T15:46:08.937Z,101251.94
2018-06-28T15:48:37.397Z,101236.79
2018-06-28T15:51:06.066Z,101236.66
2018-06-28T15:53:34.582Z,101234.63
2018-06-28T15:56:03.765Z,101230.59
2018-06-28T15:58:32.276Z,101229.27
2018-06-28T16:01:01.081Z,101222.17
2018-06-28T16:03:30.453Z,101220.83
2018-06-28T16:05:59.802Z,101216.94
2018-06-28T16:08:28.411Z,101220.34
2018-06-28T16:10:57.026Z,101206.22
2018-06-28T16:13:25.550Z,101212.06
2018-06-28T16:15:54.066Z,101207.23
2018-06-28T16:18:22.536Z,101198.02
2018-06-28T16:20:50.954Z,101195.58
2018-06-28T16:23:20.185Z,101197.98
2018-06-28T16:25:48.701Z,101194.77
2018-06-28T16:28:17.154Z,101190.73
2018-06-28T16:30:45.782Z,101185.39
2018-06-28T16:33:14.254Z,101190.55
2018-06-28T16:35:42.693Z,101184.56
2018-06-28T16:38:11.402Z,101193.06
2018-06-28T16:40:40.217Z,101186.91
2018-06-28T16:43:08.678Z,101187.62
2018-06-28T16:45:37.286Z,101178.89
2018-06-28T16:48:05.841Z,101178.14
2018-06-28T16:50:34.282Z,101167.02
2018-06-28T16:53:02.854Z,101167.89
2018-06-28T16:55:31.301Z,101162.31
2018-06-28T16:57:59.753Z,101168.41
2018-06-28T17:00:28.354Z,101157.86
2018-06-28T17:02:57.033Z,101148.64
2018-06-28T17:05:25.503Z,101149.00
2018-06-28T17:07:54.541Z,101144.62
2018-06-28T17:10:22.986Z,101139.11
2018-06-28T17:12:51.469Z,101135.77
2018-06-28T17:15:20.375Z,101134.83
2018-06-28T17:17:48.935Z,101132.55
2018-06-28T17:20:17.459Z,101133.45
2018-06-28T17:22:46.064Z,101132.20
2018-06-28T17:25:14.920Z,101124.50
2018-06-28T17:27:43.428Z,101119.36
2018-06-28T17:30:11.914Z,101118.21
2018-06-28T17:32:40.761Z,101118.84
2018-06-28T17:35:09.229Z,101117.84
2018-06-28T17:37:37.762Z,101104.20
2018-06-28T17:40:07.008Z,101106.38
2018-06-28T17:42:35.567Z,101108.19
2018-06-28T17:45:04.141Z,101102.80
2018-06-28T17:47:32.642Z,101105.41
2018-06-28T17:50:01.066Z,101098.92
2018-06-28T17:52:29.661Z,101093.83
2018-06-28T17:54:58.325Z,101093.88
2018-06-28T17:57:26.826Z,101094.30
2018-06-28T17:59:55.330Z,101087.82
2018-06-28T18:02:24.116Z,101077.63
2018-06-28T18:04:52.786Z,101074.63
2018-06-28T18:07:21.210Z,101068.61
2018-06-28T18:09:50.229Z,101059.83
2018-06-28T18:12:18.787Z,101060.29
2018-06-28T18:14:47.813Z,101057.74
2018-06-28T18:17:17.293Z,101050.80
2018-06-28T18:19:45.733Z,101050.47
2018-06-28T18:22:14.247Z,101045.20
2018-06-28T18:24:43.261Z,101038.53
2018-06-28T18:27:11.777Z,101042.78
2018-06-28T18:29:40.222Z,101047.03
2018-06-28T18:32:08.857Z,101047.77
2018-06-28T18:34:37.277Z,101044.20
2018-06-28T18:37:06.462Z,101040.85
2018-06-28T18:39:35.051Z,101042.74
2018-06-28T18:42:03.595Z,101044.22
2018-06-28T18:44:32.079Z,101014.89
2018-06-28T18:47:01.501Z,101039.07
2018-06-28T18:49:30.653Z,101031.95
2018-06-28T18:51:59.933Z,101037.36
2018-06-28T18:54:28.998Z,101038.48
2018-06-28T18:56:57.577Z,101030.23
2018-06-28T18:59:26.167Z,101028.89
2018-06-28T19:01:55.334Z,101027.05
2018-06-28T19:04:23.838Z,101033.75
2018-06-28T19:06:52.561Z,101029.23
2018-06-28T19:09:21.200Z,101027.80
2018-06-28T19:11:49.626Z,101029.06
2018-06-28T19:14:23.378Z,101025.83
2018-06-28T19:16:56.865Z,101032.74
2018-06-28T19:19:25.698Z,101032.56
2018-06-28T19:21:59.452Z,101035.16
2018-06-28T19:24:28.006Z,101027.86
2018-06-28T19:26:56.573Z,101032.63
2018-06-28T19:29:30.360Z,101042.81
2018-06-28T19:33:05.375Z,101060.95
2018-06-28T19:35:33.965Z,101162.98
2018-06-28T19:38:02.869Z,101180.25
2018-06-28T19:40:36.826Z,101188.09
2018-06-28T19:43:07.789Z,101205.77
2018-06-28T19:45:37.359Z,101220.34
2018-06-28T19:48:06.190Z,101209.73
2018-06-28T19:50:40.007Z,101211.48
2018-06-28T19:53:12.941Z,101233.16
2018-06-28T19:55:41.453Z,101249.89
2018-06-28T19:58:10.070Z,101248.72
2018-06-28T20:00:43.923Z,101259.17
2018-06-28T20:05:25.409Z,101270.42
2018-06-28T20:07:54.134Z,101277.45
2018-06-28T20:10:22.705Z,101277.66
2018-06-28T20:12:56.705Z,101277.81
2018-06-28T20:16:01.325Z,101274.80
2018-06-28T20:18:35.195Z,101281.66
2018-06-28T20:21:04.635Z,101282.24
2018-06-28T20:23:33.069Z,101280.09
2018-06-28T20:26:06.849Z,101286.38
2018-06-28T20:28:40.821Z,101292.65
2018-06-28T20:31:15.180Z,101291.36
2018-06-28T20:33:48.913Z,101301.16
2018-06-28T20:36:17.383Z,101313.19
2018-06-28T20:38:46.010Z,101324.75
2018-06-28T20:41:14.453Z,101320.33
2018-06-28T20:43:43.065Z,101335.44
2018-06-28T20:46:11.758Z,101346.10
2018-06-28T20:48:40.189Z,101339.03
2018-06-28T20:51:08.760Z,101341.25
2018-06-28T20:53:37.862Z,101330.59
2018-06-28T20:56:06.593Z,101331.04
2018-06-28T20:58:36.617Z,101318.19
2018-06-28T21:01:06.072Z,101315.52
2018-06-28T21:03:35.485Z,101337.67
2018-06-28T21:06:04.603Z,101345.20
2018-06-28T21:08:33.358Z,101365.98
2018-06-28T21:11:02.389Z,101375.16
2018-06-28T21:13:31.095Z,101380.36
2018-06-28T21:16:00.254Z,101387.34
2018-06-28T21:18:28.683Z,101383.19
2018-06-28T21:20:57.274Z,101368.05
2018-06-28T21:23:26.615Z,101375.39
2018-06-28T21:25:55.038Z,101373.06
2018-06-28T21:28:24.010Z,101355.23
2018-06-28T21:30:52.521Z,101355.13
2018-06-28T21:33:21.397Z,101359.52
2018-06-28T21:35:49.931Z,101351.08
2018-06-28T21:38:18.349Z,101352.42
2018-06-28T21:40:46.777Z,101355.49
2018-06-28T21:43:15.461Z,101339.17
2018-06-28T21:45:44.213Z,101354.68
2018-06-28T21:48:12.697Z,101338.78
2018-06-28T21:50:41.219Z,101345.80
2018-06-28T21:53:09.745Z,101359.50
2018-06-28T21:55:38.193Z,101362.61
2018-06-28T21:58:06.869Z,101374.09
2018-06-28T22:00:36.612Z,101379.40
2018-06-28T22:03:07.333Z,101375.42
2018-06-28T22:05:36.245Z,101382.50
2018-06-28T22:08:06.157Z,101377.20
2018-06-28T22:10:34.761Z,101373.16
2018-06-28T22:13:03.587Z,101368.23
2018-06-28T22:15:32.521Z,101369.06
2018-06-28T22:18:02.197Z,101366.77
2018-06-28T22:20:31.757Z,101368.02
2018-06-28T22:23:00.657Z,101348.98
2018-06-28T22:25:30.588Z,101362.53
2018-06-28T22:27:59.345Z,101377.91
2018-06-28T22:30:28.019Z,101385.34
2018-06-28T22:32:56.526Z,101378.22
2018-06-28T22:35:26.048Z,101382.56
2018-06-28T22:37:54.465Z,101387.36
2018-06-28T22:40:23.024Z,101397.03
2018-06-28T22:42:51.603Z,101398.73
2018-06-28T22:45:20.025Z,101396.91
2018-06-28T22:47:48.686Z,101400.86
2018-06-28T22:50:18.340Z,101405.67
2018-06-28T22:52:46.758Z,101401.62
2018-06-28T22:55:15.218Z,101395.39
2018-06-28T22:57:43.893Z,101400.20
2018-06-28T23:00:13.102Z,101403.70
2018-06-28T23:02:41.553Z,101403.66
2018-06-28T23:05:10.566Z,101408.92
2018-06-28T23:07:39.112Z,101411.06
2018-06-28T23:10:08.136Z,101415.89
2018-06-28T23:12:37.185Z,101415.48
2018-06-28T23:15:05.650Z,101412.38
2018-06-28T23:17:34.113Z,101414.55
2018-06-28T23:20:02.985Z,101418.92
2018-06-28T23:22:44.392Z,101421.57
2018-06-28T23:25:14.823Z,101420.18
2018-06-28T23:27:44.389Z,101425.47
2018-06-28T23:30:13.289Z,101417.92
2018-06-28T23:32:42.549Z,101428.50
2018-06-28T23:35:11.963Z,101433.28
2018-06-28T23:37:40.705Z,101434.96
2018-06-28T23:40:09.273Z,101446.40
2018-06-28T23:42:38.422Z,101448.99
2018-06-28T23:45:07.653Z,101448.48
2018-06-28T23:47:36.470Z,101454.13
2018-06-28T23:50:05.857Z,101453.53
2018-06-28T23:52:34.465Z,101454.34
2018-06-28T23:55:02.903Z,101449.84
2018-06-28T23:57:31.642Z,101423.89
